Tyler, Texas
Current Conditions -  °F | °C
As of 10:53 AM on Thursday 25 Dec 2014 (Local Time) from KTYR Reporting Station
Clear Clear  
Wind Chill: 55°   Ceiling: Unl
Heat Index: 55°   Visibility: 10mi
Dew Point: 32°   Wind: 14mph
Humidity: 42%   Direction: 190°S
Pressure: 30.11"   Gusts: 26mph
Location:  32.35°N, 95.29°W
Report Text: KTYR 251653Z 19012G23KT 10SM CLR 13/00 A3011 RMK AO2 SLP195 T01280000
Loading
Personal Weather Stations






























Interactive Weather Map New forecast layout! Learn more

10-Day Weather Forecast

Advertisements
Track Severe Weather on mobile